Time;durP1;ratioP1;P1;durP2;ratioP2;P2;SDS_P1;SDS_P2;PMS_P1;PMS_P2;Temp;Humidity;BMP_temperature;BMP_pressure;BME280_temperature;BME280_humidity;BME280_pressure;Samples;Min_cycle;Max_cycle;Signal;HPM_P1;HPM_P2
2023/06/04 00:00:36;;;;;;;;;;;;;;;21.48;36.54;101340.22;4197888;28;19946;-65
2023/06/04 00:02:38;;;;;;;;;;;;;;;21.46;36.55;101340.34;4198847;28;20015;-66
2023/06/04 00:04:40;;;;;;;;;;;;;;;21.46;36.74;101340.34;4199037;28;20309;-64
2023/06/04 00:06:41;;;;;;;;;;;;;;;21.43;36.86;101340.56;4198796;28;19928;-66
2023/06/04 00:08:43;;;;;;;;;;;;;;;21.42;36.88;101340.66;4199042;28;20408;-66
2023/06/04 00:10:44;;;;;;;;;;;;;;;21.41;36.84;101330.94;4197373;28;19931;-66
2023/06/04 00:12:50;;;;;;;;;;;;;;;21.41;36.83;101338.97;4198857;28;20566;-66
2023/06/04 00:14:52;;;;;;;;;;;;;;;21.39;36.63;101331.06;4198704;28;19935;-66
2023/06/04 00:16:54;;;;;;;;;;;;;;;21.39;37.00;101328.38;4196011;28;19947;-66
2023/06/04 00:18:55;;;;;;;;;;;;;;;21.37;37.02;101333.84;4130555;28;19933;-66
2023/06/04 00:20:57;;;;;;;;;;;;;;;21.36;36.65;101333.94;4129573;28;19926;-65
2023/06/04 00:22:58;;;;;;;;;;;;;;;21.36;36.67;101333.94;4130526;28;19926;-65
2023/06/04 00:25:00;;;;;;;;;;;;;;;21.35;36.63;101338.44;4130095;28;19926;-65
2023/06/04 00:27:01;;;;;;;;;;;;;;;21.35;36.58;101330.41;4120468;28;19934;-65
2023/06/04 00:29:03;;;;;;;;;;;;;;;21.34;36.64;101333.22;4145201;28;19937;-65
2023/06/04 00:31:05;;;;;;;;;;;;;;;21.33;36.68;101335.00;4113298;28;20020;-66
2023/06/04 00:33:07;;;;;;;;;;;;;;;21.33;36.60;101336.84;4113853;28;20016;-65
2023/06/04 00:35:09;;;;;;;;;;;;;;;21.32;36.73;101343.16;4154146;28;20010;-65
2023/06/04 00:37:16;;;;;;;;;;;;;;;21.31;36.94;101342.31;4114204;28;20021;-65
2023/06/04 00:39:17;;;;;;;;;;;;;;;21.29;36.94;101346.91;4163565;28;19933;-65
2023/06/04 00:41:19;;;;;;;;;;;;;;;21.29;36.81;101351.38;4112038;28;19933;-65
2023/06/04 00:43:20;;;;;;;;;;;;;;;21.28;37.00;101350.53;4114374;28;20010;-65
2023/06/04 00:45:25;;;;;;;;;;;;;;;21.28;36.68;101349.69;4114066;28;19938;-65
2023/06/04 00:47:27;;;;;;;;;;;;;;;21.27;36.84;101348.81;4114224;28;19930;-65
2023/06/04 00:49:29;;;;;;;;;;;;;;;21.26;36.93;101347.09;4113933;28;19926;-65
2023/06/04 00:51:31;;;;;;;;;;;;;;;21.25;36.85;101345.41;4113119;28;19930;-65
2023/06/04 00:53:32;;;;;;;;;;;;;;;21.24;36.88;101341.03;4113123;28;19973;-65
2023/06/04 00:55:34;;;;;;;;;;;;;;;21.25;36.95;101341.88;4113591;28;19926;-65
2023/06/04 00:57:37;;;;;;;;;;;;;;;21.23;37.00;101342.84;4113765;28;19926;-65
2023/06/04 00:59:38;;;;;;;;;;;;;;;21.21;37.13;101343.91;4114053;28;19926;-65
2023/06/04 01:01:55;;;;;;;;;;;;;;;21.21;36.95;101339.41;4112896;28;19926;-65
2023/06/04 01:03:57;;;;;;;;;;;;;;;21.20;36.85;101344.88;4114412;28;20380;-65
2023/06/04 01:05:59;;;;;;;;;;;;;;;21.19;37.08;101341.34;4113872;28;19987;-66
2023/06/04 01:08:01;;;;;;;;;;;;;;;21.18;36.81;101344.13;4113674;28;19961;-66
2023/06/04 01:10:03;;;;;;;;;;;;;;;21.18;37.10;101345.00;4113046;28;20430;-65
2023/06/04 01:12:10;;;;;;;;;;;;;;;21.18;36.83;101353.00;4113705;28;20052;-66
2023/06/04 01:14:18;;;;;;;;;;;;;;;21.19;36.84;101348.50;4113865;28;19979;-65
2023/06/04 01:16:20;;;;;;;;;;;;;;;21.18;37.04;101354.81;4113846;28;19926;-65
2023/06/04 01:18:28;;;;;;;;;;;;;;;21.15;37.16;101344.34;4125961;28;19955;-65
2023/06/04 01:20:39;;;;;;;;;;;;;;;21.14;37.00;101343.50;4127859;28;19933;-65
2023/06/04 01:22:56;;;;;;;;;;;;;;;21.13;36.68;101332.88;4129511;28;19926;-65
2023/06/04 01:25:04;;;;;;;;;;;;;;;21.13;36.79;101348.94;4129755;28;19958;-65
2023/06/04 01:27:06;;;;;;;;;;;;;;;21.12;37.25;101340.06;4119212;28;20009;-65
2023/06/04 01:29:08;;;;;;;;;;;;;;;21.10;36.81;101344.66;4113399;28;19926;-66
2023/06/04 01:31:10;;;;;;;;;;;;;;;21.11;37.14;101348.22;4112329;28;19933;-65
2023/06/04 01:33:13;;;;;;;;;;;;;;;21.09;36.87;101337.59;4113567;28;19930;-64
2023/06/04 01:35:15;;;;;;;;;;;;;;;21.09;37.10;101342.09;4177040;28;19977;-64
2023/06/04 01:37:16;;;;;;;;;;;;;;;21.08;36.90;101340.41;4113167;28;19927;-64
2023/06/04 01:39:18;;;;;;;;;;;;;;;21.08;37.15;101343.91;4176131;28;19929;-65
2023/06/04 01:41:19;;;;;;;;;;;;;;;21.06;37.20;101338.69;4111229;28;20033;-65
2023/06/04 01:43:21;;;;;;;;;;;;;;;21.05;37.09;101342.31;4113362;28;19927;-65
2023/06/04 01:45:23;;;;;;;;;;;;;;;21.05;37.04;101339.63;4112927;28;19989;-65
2023/06/04 01:47:25;;;;;;;;;;;;;;;21.05;37.12;101347.66;4113621;28;19930;-65
2023/06/04 01:49:27;;;;;;;;;;;;;;;21.04;36.92;101342.44;4113478;28;19927;-65
2023/06/04 01:51:28;;;;;;;;;;;;;;;21.03;36.87;101348.72;4112096;28;19983;-65
2023/06/04 01:53:30;;;;;;;;;;;;;;;21.02;37.00;101345.22;4113287;28;19974;-65
2023/06/04 01:55:33;;;;;;;;;;;;;;;21.01;37.06;101335.47;4113456;28;20024;-64
2023/06/04 01:57:40;;;;;;;;;;;;;;;21.01;37.01;101353.31;4113189;28;20411;-65
2023/06/04 01:59:41;;;;;;;;;;;;;;;20.99;36.87;101345.41;4113375;28;19976;-66
2023/06/04 02:01:43;;;;;;;;;;;;;;;21.00;36.77;101343.63;4112113;28;19930;-66
2023/06/04 02:03:45;;;;;;;;;;;;;;;20.98;36.93;101348.22;4113203;28;19926;-66
2023/06/04 02:05:46;;;;;;;;;;;;;;;20.98;37.07;101342.84;4112918;28;19927;-66
2023/06/04 02:07:48;;;;;;;;;;;;;;;20.98;37.03;101350.88;4112881;28;20346;-66
2023/06/04 02:09:49;;;;;;;;;;;;;;;20.97;37.16;101349.16;4113101;28;19926;-65
2023/06/04 02:11:56;;;;;;;;;;;;;;;20.96;37.12;101350.13;4111897;28;19926;-66
2023/06/04 02:13:57;;;;;;;;;;;;;;;20.94;37.07;101344.88;4113335;28;19950;-66
2023/06/04 02:15:59;;;;;;;;;;;;;;;20.94;37.14;101350.22;4113018;28;19926;-66
2023/06/04 02:18:15;;;;;;;;;;;;;;;20.95;37.00;101351.06;4122348;28;19925;-66
2023/06/04 02:20:18;;;;;;;;;;;;;;;20.95;37.17;101353.75;4128336;28;20322;-65
2023/06/04 02:22:19;;;;;;;;;;;;;;;20.93;36.98;101353.88;4118044;28;19961;-65
2023/06/04 02:24:21;;;;;;;;;;;;;;;20.93;37.01;101351.19;4113103;28;19926;-65
2023/06/04 02:26:24;;;;;;;;;;;;;;;20.93;37.09;101358.38;4112692;28;19933;-65
2023/06/04 02:28:26;;;;;;;;;;;;;;;20.91;37.23;101361.13;4112917;28;19992;-65
2023/06/04 02:30:28;;;;;;;;;;;;;;;20.92;37.24;101356.66;4112224;28;19930;-66
2023/06/04 02:32:29;;;;;;;;;;;;;;;20.92;36.99;101359.34;4112813;28;20410;-66
2023/06/04 02:34:31;;;;;;;;;;;;;;;20.90;36.74;101364.78;4138332;28;19947;-66
2023/06/04 02:36:32;;;;;;;;;;;;;;;20.89;37.04;101363.06;4124768;28;19942;-65
2023/06/04 02:38:34;;;;;;;;;;;;;;;20.87;36.68;101359.66;4151145;28;19932;-65
2023/06/04 02:40:36;;;;;;;;;;;;;;;20.86;37.23;101361.47;4195780;28;20320;-66
2023/06/04 02:42:37;;;;;;;;;;;;;;;20.85;37.04;101362.44;4196623;28;19924;-66
2023/06/04 02:44:39;;;;;;;;;;;;;;;20.85;37.01;101357.09;4196729;28;20118;-65
2023/06/04 02:46:41;;;;;;;;;;;;;;;20.86;37.12;101363.28;4196721;28;19924;-65
2023/06/04 02:48:42;;;;;;;;;;;;;;;20.84;37.03;101360.72;4128251;28;19930;-66
2023/06/04 02:50:43;;;;;;;;;;;;;;;20.83;37.04;101355.47;4111632;28;20009;-65
2023/06/04 02:52:45;;;;;;;;;;;;;;;20.84;36.80;101359.84;4112098;28;19930;-65
2023/06/04 02:54:46;;;;;;;;;;;;;;;20.83;37.14;101355.47;4112669;28;19926;-64
2023/06/04 02:56:49;;;;;;;;;;;;;;;20.82;36.91;101359.13;4111406;28;19965;-65
2023/06/04 02:58:55;;;;;;;;;;;;;;;20.81;36.89;101360.06;4112596;28;19926;-66
2023/06/04 03:00:57;;;;;;;;;;;;;;;20.80;36.96;101356.53;4111705;28;19933;-64
2023/06/04 03:03:01;;;;;;;;;;;;;;;20.78;37.12;101352.25;4112559;28;19927;-64
2023/06/04 03:05:04;;;;;;;;;;;;;;;20.80;37.20;101358.34;4112354;28;20320;-65
2023/06/04 03:07:05;;;;;;;;;;;;;;;20.78;37.10;101358.47;4112021;28;19969;-65
2023/06/04 03:09:07;;;;;;;;;;;;;;;20.77;37.08;101350.53;4112544;28;19926;-65
2023/06/04 03:11:09;;;;;;;;;;;;;;;20.76;37.10;101354.19;4111751;28;20013;-64
2023/06/04 03:13:10;;;;;;;;;;;;;;;20.76;36.71;101362.22;4112231;28;19930;-64
2023/06/04 03:15:12;;;;;;;;;;;;;;;20.73;36.89;101355.25;4112674;28;19937;-65
2023/06/04 03:17:14;;;;;;;;;;;;;;;20.73;36.71;101348.09;4116005;28;19979;-65
2023/06/04 03:19:16;;;;;;;;;;;;;;;20.73;36.97;101347.25;4131087;28;19926;-64
2023/06/04 03:21:18;;;;;;;;;;;;;;;20.72;36.82;101361.56;4130176;28;19925;-65
2023/06/04 03:23:19;;;;;;;;;;;;;;;20.72;37.08;101350.88;4131505;28;20348;-65
2023/06/04 03:25:21;;;;;;;;;;;;;;;20.72;37.09;101361.56;4131393;28;19926;-64
2023/06/04 03:27:23;;;;;;;;;;;;;;;20.71;37.02;101362.50;4118453;28;19933;-65
2023/06/04 03:29:24;;;;;;;;;;;;;;;20.70;36.99;101345.56;4114942;28;19926;-65
2023/06/04 03:31:26;;;;;;;;;;;;;;;20.71;36.87;101357.13;4114108;28;20008;-63
2023/06/04 03:33:27;;;;;;;;;;;;;;;20.69;36.90;101351.91;4115615;28;19937;-65
2023/06/04 03:35:29;;;;;;;;;;;;;;;20.69;37.02;101354.59;4152804;28;19926;-64
2023/06/04 03:37:32;;;;;;;;;;;;;;;20.69;37.08;101356.38;4114924;28;19933;-65
2023/06/04 03:39:34;;;;;;;;;;;;;;;20.68;37.01;101354.66;4195620;28;20309;-64
2023/06/04 03:41:35;;;;;;;;;;;;;;;20.67;36.76;101348.47;4197045;28;20336;-65
2023/06/04 03:43:37;;;;;;;;;;;;;;;20.67;37.01;101351.16;4199199;28;20027;-65
2023/06/04 03:45:38;;;;;;;;;;;;;;;20.66;36.94;101354.78;4199220;28;20301;-65
2023/06/04 03:47:40;;;;;;;;;;;;;;;20.66;37.05;101353.94;4198992;28;20031;-64
2023/06/04 03:49:41;;;;;;;;;;;;;;;20.66;36.77;101356.59;4199114;28;19925;-64
2023/06/04 03:51:43;;;;;;;;;;;;;;;20.66;36.77;101357.44;4197923;28;19936;-64
2023/06/04 03:53:45;;;;;;;;;;;;;;;20.65;36.97;101353.06;4199106;28;19932;-64
2023/06/04 03:55:46;;;;;;;;;;;;;;;20.64;36.85;101358.53;4199023;28;19925;-64
2023/06/04 03:57:48;;;;;;;;;;;;;;;20.64;37.03;101361.19;4198961;28;19924;-65
2023/06/04 03:59:50;;;;;;;;;;;;;;;20.63;36.77;101368.34;4198866;28;19925;-64
2023/06/04 04:01:51;;;;;;;;;;;;;;;20.64;36.88;101363.88;4197770;28;19939;-64
2023/06/04 04:03:53;;;;;;;;;;;;;;;20.63;36.86;101362.16;4199157;28;20280;-64
2023/06/04 04:05:56;;;;;;;;;;;;;;;20.63;37.03;101368.34;4199107;28;19925;-64
2023/06/04 04:07:58;;;;;;;;;;;;;;;20.63;36.86;101368.34;4198757;28;19933;-64
2023/06/04 04:09:59;;;;;;;;;;;;;;;20.62;36.80;101366.66;4199076;28;20125;-64
2023/06/04 04:12:01;;;;;;;;;;;;;;;20.62;36.94;101363.09;4197474;28;20034;-64
2023/06/04 04:14:02;;;;;;;;;;;;;;;20.61;37.00;101367.59;4198869;28;19932;-65
2023/06/04 04:16:04;;;;;;;;;;;;;;;20.61;37.10;101372.94;4198862;28;19924;-64
2023/06/04 04:18:08;;;;;;;;;;;;;;;20.59;37.00;101370.34;4154836;28;19926;-63
2023/06/04 04:20:10;;;;;;;;;;;;;;;20.59;37.03;101372.19;4130587;28;19983;-64
2023/06/04 04:22:12;;;;;;;;;;;;;;;20.59;36.69;101374.84;4129791;28;20020;-63
2023/06/04 04:24:26;;;;;;;;;;;;;;;20.58;36.85;101371.34;4130684;28;20360;-63
2023/06/04 04:26:28;;;;;;;;;;;;;;;20.57;37.05;101366.94;4124946;28;20387;-64
2023/06/04 04:28:32;;;;;;;;;;;;;;;20.57;36.87;101374.97;4114216;28;19948;-63
2023/06/04 04:30:35;;;;;;;;;;;;;;;20.58;36.95;101375.81;4114263;28;19930;-67
2023/06/04 04:32:38;;;;;;;;;;;;;;;20.57;36.74;101369.63;4113352;28;20453;-66
2023/06/04 04:34:51;;;;;;;;;;;;;;;20.46;36.81;101349.94;4146141;28;19951;-67
2023/06/04 04:36:53;;;;;;;;;;;;;;;20.56;36.79;101367.91;4098531;28;19926;-66
2023/06/04 04:38:54;;;;;;;;;;;;;;;20.56;36.93;101372.38;4163586;28;19931;-66
2023/06/04 04:40:57;;;;;;;;;;;;;;;20.54;36.93;101369.81;4197587;28;20178;-67
2023/06/04 04:42:58;;;;;;;;;;;;;;;20.55;36.84;101376.88;4198327;28;19932;-66
2023/06/04 04:45:00;;;;;;;;;;;;;;;20.55;36.80;101381.38;4198762;28;19935;-66
2023/06/04 04:47:02;;;;;;;;;;;;;;;20.55;36.83;101381.38;4198062;28;20012;-66
2023/06/04 04:49:03;;;;;;;;;;;;;;;20.55;37.00;101376.88;4198263;28;20404;-66
2023/06/04 04:51:05;;;;;;;;;;;;;;;20.55;36.77;101390.25;4197117;28;20440;-66
2023/06/04 04:53:06;;;;;;;;;;;;;;;20.54;36.77;101385.84;4163831;28;20005;-66
2023/06/04 04:55:09;;;;;;;;;;;;;;;20.54;36.90;101382.34;4113997;28;19937;-66
2023/06/04 04:57:10;;;;;;;;;;;;;;;20.54;36.78;101385.00;4114220;28;20410;-65
2023/06/04 04:59:14;;;;;;;;;;;;;;;20.53;36.82;101377.94;4113885;28;19926;-66
2023/06/04 05:01:16;;;;;;;;;;;;;;;20.53;36.94;101385.97;4112618;28;20299;-66
2023/06/04 05:03:18;;;;;;;;;;;;;;;20.53;36.81;101393.97;4112559;28;19926;-65
2023/06/04 05:05:19;;;;;;;;;;;;;;;20.53;37.03;101396.66;4113815;28;19926;-66
2023/06/04 05:07:23;;;;;;;;;;;;;;;20.53;36.75;101392.16;4113637;28;19958;-65
2023/06/04 05:09:24;;;;;;;;;;;;;;;20.52;36.97;101398.47;4113937;28;20403;-65
2023/06/04 05:11:26;;;;;;;;;;;;;;;20.52;36.79;101397.59;4112920;28;19927;-66
2023/06/04 05:13:27;;;;;;;;;;;;;;;20.51;36.66;101402.09;4113451;28;19957;-65
2023/06/04 05:15:29;;;;;;;;;;;;;;;20.50;36.88;101400.38;4113473;28;20362;-66
2023/06/04 05:17:31;;;;;;;;;;;;;;;20.50;36.75;101397.72;4119235;28;19949;-66
2023/06/04 05:19:32;;;;;;;;;;;;;;;20.50;36.61;101402.19;4129674;28;20379;-66
2023/06/04 05:21:36;;;;;;;;;;;;;;;20.49;36.84;101401.34;4128840;28;19934;-66
2023/06/04 05:23:38;;;;;;;;;;;;;;;20.49;36.85;101405.84;4129859;28;19926;-66
2023/06/04 05:25:43;;;;;;;;;;;;;;;20.49;36.98;101409.38;4129841;28;19933;-66
2023/06/04 05:27:45;;;;;;;;;;;;;;;20.47;36.98;101399.75;4113959;28;19941;-66
2023/06/04 05:29:46;;;;;;;;;;;;;;;20.47;37.01;101405.09;4112913;28;19933;-66
2023/06/04 05:31:48;;;;;;;;;;;;;;;20.46;36.81;101408.72;4112687;28;20299;-66
2023/06/04 05:33:50;;;;;;;;;;;;;;;20.44;36.96;101406.16;4117727;28;19929;-66
2023/06/04 05:35:52;;;;;;;;;;;;;;;20.44;36.57;101408.81;4149164;28;20350;-66
2023/06/04 05:37:53;;;;;;;;;;;;;;;20.43;36.80;101417.78;4123311;28;19934;-66
2023/06/04 05:39:56;;;;;;;;;;;;;;;20.42;36.90;101414.25;4197133;28;19928;-65
2023/06/04 05:41:57;;;;;;;;;;;;;;;20.41;36.81;101415.22;4196226;28;19924;-65
2023/06/04 05:43:59;;;;;;;;;;;;;;;20.40;36.48;101410.84;4197227;28;20314;-66
2023/06/04 05:46:01;;;;;;;;;;;;;;;20.39;36.87;101409.13;4197366;28;20007;-66
2023/06/04 05:48:03;;;;;;;;;;;;;;;20.38;36.85;101418.09;4197335;28;20373;-66
2023/06/04 05:50:05;;;;;;;;;;;;;;;20.39;36.65;101410.91;4197344;28;19929;-66
2023/06/04 05:52:07;;;;;;;;;;;;;;;20.38;36.84;101418.09;4196252;28;19925;-66
2023/06/04 05:54:09;;;;;;;;;;;;;;;20.38;36.55;101415.41;4197055;28;19925;-66
2023/06/04 05:56:10;;;;;;;;;;;;;;;20.37;36.70;101415.53;4197307;28;19978;-66
2023/06/04 05:58:12;;;;;;;;;;;;;;;20.38;36.71;101428.78;4197100;28;19932;-66
2023/06/04 06:00:14;;;;;;;;;;;;;;;20.37;36.84;101421.72;4197188;28;19967;-66
2023/06/04 06:02:15;;;;;;;;;;;;;;;20.37;36.51;101428.88;4196250;28;19924;-66
2023/06/04 06:04:17;;;;;;;;;;;;;;;20.36;36.67;101429.84;4197254;28;20404;-65
2023/06/04 06:06:20;;;;;;;;;;;;;;;20.36;36.50;101430.69;4197274;28;20314;-64
2023/06/04 06:08:22;;;;;;;;;;;;;;;20.36;36.77;101429.84;4196920;28;19936;-65
2023/06/04 06:10:24;;;;;;;;;;;;;;;20.36;36.54;101437.84;4197201;28;19930;-65
2023/06/04 06:12:25;;;;;;;;;;;;;;;20.35;36.80;101438.81;4195640;28;19925;-65
2023/06/04 06:14:27;;;;;;;;;;;;;;;20.35;36.52;101445.03;4197030;28;19967;-65
2023/06/04 06:16:28;;;;;;;;;;;;;;;20.33;36.59;101438.91;4196985;28;19925;-65
2023/06/04 06:18:30;;;;;;;;;;;;;;;20.34;36.71;101447.78;4139701;28;19933;-65
2023/06/04 06:20:32;;;;;;;;;;;;;;;20.33;36.52;101441.59;4129150;28;20024;-65
2023/06/04 06:22:34;;;;;;;;;;;;;;;20.32;36.79;101449.72;4121635;28;19926;-64
2023/06/04 06:24:36;;;;;;;;;;;;;;;20.33;36.59;101454.06;4112881;28;20284;-65
2023/06/04 06:26:38;;;;;;;;;;;;;;;20.32;36.72;101449.72;4112804;28;20008;-65
2023/06/04 06:28:39;;;;;;;;;;;;;;;20.31;36.49;101448.84;4112560;28;19972;-64
2023/06/04 06:30:41;;;;;;;;;;;;;;;20.30;36.53;101449.78;4112926;28;19933;-65
2023/06/04 06:32:42;;;;;;;;;;;;;;;20.31;36.47;101450.66;4111528;28;20314;-65
2023/06/04 06:34:44;;;;;;;;;;;;;;;20.32;36.37;101444.38;4147514;28;19983;-65
2023/06/04 06:36:46;;;;;;;;;;;;;;;20.31;36.66;101440.81;4116847;28;20292;-64
2023/06/04 06:38:48;;;;;;;;;;;;;;;20.32;36.43;101444.38;4160691;28;20036;-64
2023/06/04 06:40:49;;;;;;;;;;;;;;;20.32;36.25;101447.03;4118714;28;19926;-64
2023/06/04 06:42:51;;;;;;;;;;;;;;;20.31;36.41;101448.84;4111767;28;19933;-63
2023/06/04 06:44:53;;;;;;;;;;;;;;;20.32;36.54;101455.06;4112458;28;19938;-65
2023/06/04 06:46:54;;;;;;;;;;;;;;;20.31;36.54;101443.50;4112852;28;20453;-65
2023/06/04 06:48:57;;;;;;;;;;;;;;;20.32;36.39;101458.56;4112834;28;19988;-65
2023/06/04 06:50:58;;;;;;;;;;;;;;;20.32;36.49;101453.22;4112630;28;19926;-65
2023/06/04 06:53:00;;;;;;;;;;;;;;;20.31;36.53;101451.50;4113339;28;19933;-65
2023/06/04 06:55:01;;;;;;;;;;;;;;;20.31;36.41;101448.84;4115627;28;19995;-65
2023/06/04 06:57:03;;;;;;;;;;;;;;;20.32;36.18;101444.38;4113608;28;19930;-65
2023/06/04 06:59:04;;;;;;;;;;;;;;;20.33;36.53;101451.41;4115529;28;20009;-65
2023/06/04 07:01:06;;;;;;;;;;;;;;;20.33;36.33;101454.94;4115323;28;19930;-65
2023/06/04 07:03:08;;;;;;;;;;;;;;;20.36;36.40;101456.56;4115242;28;19934;-65
2023/06/04 07:05:10;;;;;;;;;;;;;;;20.39;36.27;101453.66;4115614;28;19980;-64
2023/06/04 07:07:12;;;;;;;;;;;;;;;20.41;36.23;101455.31;4115320;28;19926;-64
2023/06/04 07:09:13;;;;;;;;;;;;;;;20.43;36.45;101452.53;4115328;28;20013;-64
2023/06/04 07:11:16;;;;;;;;;;;;;;;20.44;36.46;101448.91;4114544;28;19937;-65
2023/06/04 07:13:18;;;;;;;;;;;;;;;20.46;36.24;101463.00;4115107;28;19980;-65
2023/06/04 07:15:19;;;;;;;;;;;;;;;20.47;36.36;101458.53;4146306;28;19925;-64
2023/06/04 07:17:21;;;;;;;;;;;;;;;20.48;36.21;101460.25;4119577;28;20317;-65
2023/06/04 07:19:23;;;;;;;;;;;;;;;20.48;36.41;101455.75;4131249;28;19926;-64
2023/06/04 07:21:24;;;;;;;;;;;;;;;20.48;36.48;101453.06;4130458;28;19930;-65
2023/06/04 07:23:27;;;;;;;;;;;;;;;20.48;36.41;101454.91;4131121;28;19925;-65
2023/06/04 07:25:28;;;;;;;;;;;;;;;20.51;36.25;101455.56;4122841;28;20344;-65
2023/06/04 07:27:30;;;;;;;;;;;;;;;20.52;36.24;101449.25;4115032;28;19926;-65
2023/06/04 07:29:31;;;;;;;;;;;;;;;20.54;36.19;101451.81;4115123;28;19974;-65
2023/06/04 07:31:33;;;;;;;;;;;;;;;20.55;36.16;101446.38;4114201;28;20025;-65
2023/06/04 07:33:42;;;;;;;;;;;;;;;20.57;35.91;101454.28;4116968;28;19930;-65
2023/06/04 07:35:44;;;;;;;;;;;;;;;20.57;36.12;101447.13;4151858;28;20429;-65
2023/06/04 07:37:47;;;;;;;;;;;;;;;20.58;35.91;101451.53;4119135;28;20037;-64
2023/06/04 07:39:49;;;;;;;;;;;;;;;20.62;36.03;101451.28;4199055;28;19932;-64
2023/06/04 07:41:50;;;;;;;;;;;;;;;20.62;35.98;101448.63;4198201;28;19928;-65
2023/06/04 07:43:52;;;;;;;;;;;;;;;20.62;35.83;101443.28;4199269;28;19925;-64
2023/06/04 07:45:53;;;;;;;;;;;;;;;20.62;36.09;101451.28;4199233;28;20386;-65
2023/06/04 07:47:55;;;;;;;;;;;;;;;20.62;36.05;101456.66;4199302;28;19967;-64
2023/06/04 07:49:57;;;;;;;;;;;;;;;20.61;36.05;101455.81;4199221;28;19970;-64
2023/06/04 07:52:04;;;;;;;;;;;;;;;20.61;36.16;101455.81;4198525;28;20283;-65
2023/06/04 07:54:05;;;;;;;;;;;;;;;20.61;36.01;101455.81;4198855;28;19932;-65
2023/06/04 07:56:07;;;;;;;;;;;;;;;20.62;35.88;101451.28;4199075;28;20397;-64
2023/06/04 07:58:08;;;;;;;;;;;;;;;20.63;36.03;101450.34;4199099;28;19925;-64
2023/06/04 08:00:11;;;;;;;;;;;;;;;20.63;35.97;101443.16;4197856;28;19932;-65
2023/06/04 08:02:14;;;;;;;;;;;;;;;20.64;35.79;101447.56;4198023;28;19982;-65
2023/06/04 08:04:16;;;;;;;;;;;;;;;20.64;35.77;101450.22;4198479;28;19928;-65
2023/06/04 08:06:18;;;;;;;;;;;;;;;20.65;35.65;101443.09;4198969;28;20291;-65
2023/06/04 08:08:19;;;;;;;;;;;;;;;20.67;35.86;101446.50;4198950;28;19936;-65
2023/06/04 08:10:21;;;;;;;;;;;;;;;20.68;35.67;101442.88;4198736;28;19924;-64
2023/06/04 08:12:23;;;;;;;;;;;;;;;20.69;35.67;101449.94;4168995;28;20013;-65
2023/06/04 08:14:26;;;;;;;;;;;;;;;20.69;35.86;101450.81;4114498;28;20311;-64
2023/06/04 08:16:28;;;;;;;;;;;;;;;20.68;35.81;101445.53;4114544;28;20425;-65
2023/06/04 08:18:30;;;;;;;;;;;;;;;20.70;35.65;101440.97;4127249;28;19936;-65
2023/06/04 08:20:31;;;;;;;;;;;;;;;20.70;35.81;101441.81;4114564;28;19937;-65
2023/06/04 08:22:33;;;;;;;;;;;;;;;20.70;35.84;101441.81;4113403;28;20445;-65
2023/06/04 08:24:34;;;;;;;;;;;;;;;20.72;35.81;101444.44;4113850;28;19934;-64
2023/06/04 08:26:36;;;;;;;;;;;;;;;20.73;35.79;101435.44;4114288;28;19930;-65
2023/06/04 08:28:38;;;;;;;;;;;;;;;20.73;35.51;101438.97;4114350;28;20013;-64
2023/06/04 08:30:40;;;;;;;;;;;;;;;20.75;35.70;101444.19;4114291;28;19927;-65
2023/06/04 08:32:42;;;;;;;;;;;;;;;20.76;35.57;101440.56;4112974;28;19927;-65
2023/06/04 08:34:44;;;;;;;;;;;;;;;20.77;35.53;101438.75;4148402;28;20399;-65
2023/06/04 08:36:46;;;;;;;;;;;;;;;20.77;35.81;101431.59;4118499;28;19932;-64
2023/06/04 08:38:52;;;;;;;;;;;;;;;20.80;35.63;101441.22;4161653;28;20024;-65
2023/06/04 08:40:57;;;;;;;;;;;;;;;20.79;35.87;101440.38;4198141;28;19930;-64
2023/06/04 08:42:59;;;;;;;;;;;;;;;20.80;35.87;101436.72;4146167;28;19926;-64
2023/06/04 08:45:02;;;;;;;;;;;;;;;20.82;35.79;101433.97;4112958;28;19934;-65
2023/06/04 08:47:05;;;;;;;;;;;;;;;20.82;35.76;101437.47;4114142;28;19930;-64
2023/06/04 08:49:08;;;;;;;;;;;;;;;20.83;35.81;101441.03;4113888;28;20001;-64
2023/06/04 08:51:10;;;;;;;;;;;;;;;20.82;35.88;101424.13;4113996;28;19933;-64
2023/06/04 08:53:13;;;;;;;;;;;;;;;20.83;35.81;101431.19;4112592;28;19926;-63
2023/06/04 08:55:15;;;;;;;;;;;;;;;20.85;35.90;101433.75;4113615;28;20306;-67
2023/06/04 08:57:17;;;;;;;;;;;;;;;20.86;35.43;101430.13;4113775;28;19961;-67
2023/06/04 08:59:19;;;;;;;;;;;;;;;20.86;35.67;101439.00;4113945;28;19926;-66
2023/06/04 09:01:21;;;;;;;;;;;;;;;20.87;35.54;101432.69;4112729;28;19927;-66
2023/06/04 09:03:24;;;;;;;;;;;;;;;20.90;35.50;101436.97;4112679;28;19972;-67
2023/06/04 09:05:26;;;;;;;;;;;;;;;20.92;35.52;101431.53;4113820;28;19926;-67
2023/06/04 09:07:28;;;;;;;;;;;;;;;20.93;35.60;101434.09;4113365;28;20414;-64
2023/06/04 09:09:31;;;;;;;;;;;;;;;20.91;35.28;101425.31;4113667;28;19926;-67
2023/06/04 09:11:35;;;;;;;;;;;;;;;20.95;34.75;101431.28;4113246;28;19933;-67
2023/06/04 09:13:37;;;;;;;;;;;;;;;20.95;35.19;101425.94;4113723;28;19961;-64
2023/06/04 09:15:39;;;;;;;;;;;;;;;20.95;35.06;101424.16;4112581;28;19962;-65
2023/06/04 09:17:41;;;;;;;;;;;;;;;20.97;35.11;101416.00;4120535;28;19952;-65
2023/06/04 09:19:42;;;;;;;;;;;;;;;20.98;35.03;101415.06;4129535;28;19979;-67
2023/06/04 09:21:51;;;;;;;;;;;;;;;20.99;34.99;101417.63;4128416;28;19964;-64
2023/06/04 09:23:53;;;;;;;;;;;;;;;21.01;34.83;101425.53;4129386;28;19961;-64
2023/06/04 09:25:54;;;;;;;;;;;;;;;21.02;34.63;101420.09;4128500;28;19933;-64
2023/06/04 09:28:05;;;;;;;;;;;;;;;21.02;34.02;101428.13;4113504;28;19934;-65
2023/06/04 09:30:09;;;;;;;;;;;;;;;21.02;34.09;101420.09;4113369;28;19930;-65
2023/06/04 09:32:12;;;;;;;;;;;;;;;21.04;34.45;101418.16;4112510;28;19948;-65
2023/06/04 09:34:14;;;;;;;;;;;;;;;21.02;33.91;101422.78;4126484;28;19930;-65
2023/06/04 09:36:16;;;;;;;;;;;;;;;21.04;33.97;101422.66;4138381;28;20025;-65
2023/06/04 09:38:18;;;;;;;;;;;;;;;21.06;33.88;101428.75;4111083;28;19965;-65
2023/06/04 09:40:19;;;;;;;;;;;;;;;21.05;33.70;101417.19;4113381;28;19961;-65
2023/06/04 09:42:22;;;;;;;;;;;;;;;21.08;34.13;101426.81;4143367;28;19929;-65
2023/06/04 09:44:23;;;;;;;;;;;;;;;21.10;33.50;101421.38;4113358;28;20280;-65
2023/06/04 09:46:25;;;;;;;;;;;;;;;21.12;33.17;101438.16;4113518;28;20285;-65
2023/06/04 09:48:26;;;;;;;;;;;;;;;;;;4113449;28;19952;-65
2023/06/04 09:50:30;;;;;;;;;;;;;;;21.12;32.81;101432.81;4111770;28;19933;-63
2023/06/04 09:52:33;;;;;;;;;;;;;;;21.14;32.53;101441.59;4112281;28;19926;-65
2023/06/04 09:54:36;;;;;;;;;;;;;;;21.15;32.83;101438.81;4113193;28;19926;-65
2023/06/04 09:56:41;;;;;;;;;;;;;;;21.15;32.33;101438.81;4113120;28;20024;-65
2023/06/04 09:58:43;;;;;;;;;;;;;;;21.17;32.08;101434.22;4113520;28;20445;-65
2023/06/04 10:00:45;;;;;;;;;;;;;;;21.17;32.27;101436.91;4113469;28;19926;-65
2023/06/04 10:02:48;;;;;;;;;;;;;;;21.19;31.77;101455.50;4112184;28;19930;-66
2023/06/04 10:04:59;;;;;;;;;;;;;;;21.19;31.69;101439.47;4113355;28;19958;-65
2023/06/04 10:07:02;;;;;;;;;;;;;;;21.20;31.67;101443.84;4113265;28;19933;-64
2023/06/04 10:09:05;;;;;;;;;;;;;;;21.22;31.48;101448.13;4113371;28;19930;-64
2023/06/04 10:11:07;;;;;;;;;;;;;;;21.22;32.05;101437.44;4113120;28;19965;-65
2023/06/04 10:13:18;;;;;;;;;;;;;;;21.24;32.07;101445.38;4112080;28;19933;-65
2023/06/04 10:15:20;;;;;;;;;;;;;;;21.27;31.81;101455.84;4113063;28;20033;-64
2023/06/04 10:17:24;;;;;;;;;;;;;;;21.28;31.92;101456.72;4144086;28;20024;-64
2023/06/04 10:19:27;;;;;;;;;;;;;;;21.30;31.34;101452.09;4112777;28;19926;-64
2023/06/04 10:21:31;;;;;;;;;;;;;;;21.31;31.61;101457.34;4113381;28;19940;-65
2023/06/04 10:23:33;;;;;;;;;;;;;;;21.32;31.31;101442.16;4111801;28;19926;-64
2023/06/04 10:25:35;;;;;;;;;;;;;;;21.32;31.51;101456.38;4113299;28;20423;-65
2023/06/04 10:27:37;;;;;;;;;;;;;;;21.33;31.64;101444.72;4112601;28;20399;-65
2023/06/04 10:29:39;;;;;;;;;;;;;;;21.35;31.88;101447.25;4112935;28;20431;-64